createdAt,value
2018-09-22T00:01:05.050Z,0
2018-09-22T00:02:14.980Z,0
2018-09-22T00:03:24.605Z,0
2018-09-22T00:04:34.269Z,0
2018-09-22T00:05:44.169Z,0
2018-09-22T00:06:54.333Z,0
2018-09-22T00:08:03.980Z,0
2018-09-22T00:09:13.899Z,0
2018-09-22T00:10:23.794Z,0
2018-09-22T00:11:33.416Z,0
2018-09-22T00:12:43.029Z,0
2018-09-22T00:13:53.194Z,0
2018-09-22T00:15:02.816Z,0
2018-09-22T00:16:12.706Z,0
2018-09-22T00:17:22.355Z,0
2018-09-22T00:18:32.242Z,0
2018-09-22T00:19:41.916Z,0
2018-09-22T00:20:51.565Z,0
2018-09-22T00:22:01.824Z,0
2018-09-22T00:23:11.446Z,0
2018-09-22T00:24:21.379Z,0
2018-09-22T00:25:31.281Z,0
2018-09-22T00:26:41.208Z,0
2018-09-22T00:27:50.972Z,0
2018-09-22T00:29:01.134Z,0
2018-09-22T00:30:10.203Z,0
2018-09-22T00:31:20.091Z,0
2018-09-22T00:32:29.977Z,0
2018-09-22T00:33:39.595Z,0
2018-09-22T00:34:49.213Z,0
2018-09-22T00:35:59.097Z,0
2018-09-22T00:37:08.439Z,0
2018-09-22T00:38:18.065Z,0
2018-09-22T00:39:28.231Z,0
2018-09-22T00:40:38.121Z,0
2018-09-22T00:41:47.742Z,0
2018-09-22T00:42:57.355Z,0
2018-09-22T00:44:07.242Z,0
2018-09-22T00:45:16.865Z,0
2018-09-22T00:46:26.789Z,0
2018-09-22T00:47:36.953Z,0
2018-09-22T00:48:47.204Z,0
2018-09-22T00:49:57.385Z,0
2018-09-22T00:51:07.551Z,0
2018-09-22T00:52:17.168Z,0
2018-09-22T00:53:26.785Z,0
2018-09-22T00:54:36.129Z,0
2018-09-22T00:55:45.467Z,0
2018-09-22T00:56:55.117Z,0
2018-09-22T00:58:05.296Z,0
2018-09-22T00:59:15.283Z,0
2018-09-22T01:00:25.173Z,0
2018-09-22T01:01:35.075Z,0
2018-09-22T01:02:45.241Z,0
2018-09-22T01:03:55.403Z,0
2018-09-22T01:05:05.034Z,0
2018-09-22T01:06:14.654Z,0
2018-09-22T01:07:24.544Z,0
2018-09-22T01:08:34.399Z,0
2018-09-22T01:09:44.015Z,0
2018-09-22T01:10:53.933Z,0
2018-09-22T01:12:03.831Z,0
2018-09-22T01:13:13.753Z,0
2018-09-22T01:14:23.372Z,0
2018-09-22T01:15:33.565Z,0
2018-09-22T01:16:43.869Z,0
2018-09-22T01:17:54.095Z,0
2018-09-22T01:19:03.758Z,0
2018-09-22T01:20:13.368Z,0
2018-09-22T01:21:23.293Z,0
2018-09-22T01:22:32.915Z,0
2018-09-22T01:23:42.531Z,0
2018-09-22T01:24:52.454Z,0
2018-09-22T01:26:02.072Z,0
2018-09-22T01:27:11.688Z,0
2018-09-22T01:28:21.616Z,0
2018-09-22T01:29:31.246Z,0
2018-09-22T01:30:41.134Z,0
2018-09-22T01:31:51.084Z,0
2018-09-22T01:33:00.983Z,0
2018-09-22T01:34:11.147Z,0
2018-09-22T01:35:20.762Z,0
2018-09-22T01:36:30.100Z,0
2018-09-22T01:37:40.262Z,0
2018-09-22T01:38:49.918Z,0
2018-09-22T01:39:59.804Z,0
2018-09-22T01:41:09.151Z,0
2018-09-22T01:42:19.049Z,0
2018-09-22T01:43:29.456Z,0
2018-09-22T01:44:39.622Z,0
2018-09-22T01:45:49.233Z,0
2018-09-22T01:46:59.439Z,0
2018-09-22T01:48:09.099Z,0
2018-09-22T01:49:18.720Z,0
2018-09-22T01:50:28.885Z,0
2018-09-22T01:51:38.225Z,0
2018-09-22T01:52:47.569Z,0
2018-09-22T01:53:57.183Z,0
2018-09-22T01:55:06.531Z,0
2018-09-22T01:56:16.150Z,0
2018-09-22T01:57:25.765Z,0
2018-09-22T01:58:35.938Z,0
2018-09-22T01:59:46.164Z,0
2018-09-22T02:00:56.054Z,0
2018-09-22T02:02:05.976Z,0
2018-09-22T02:03:15.866Z,0
2018-09-22T02:04:25.486Z,0
2018-09-22T02:05:35.353Z,0
2018-09-22T02:06:44.963Z,0
2018-09-22T02:07:54.612Z,0
2018-09-22T02:09:04.227Z,0
2018-09-22T02:10:13.300Z,0
2018-09-22T02:11:22.910Z,0
2018-09-22T02:12:33.076Z,0
2018-09-22T02:13:42.697Z,0
2018-09-22T02:14:52.320Z,0
2018-09-22T02:16:01.360Z,0
2018-09-22T02:17:11.254Z,0
2018-09-22T02:18:20.906Z,0
2018-09-22T02:19:31.083Z,0
2018-09-22T02:20:40.980Z,0
2018-09-22T02:21:50.874Z,0
2018-09-22T02:23:00.219Z,0
2018-09-22T02:24:09.939Z,0
2018-09-22T02:25:19.827Z,0
2018-09-22T02:26:29.172Z,0
2018-09-22T02:27:39.340Z,0
2018-09-22T02:28:48.963Z,0
2018-09-22T02:29:59.123Z,0
2018-09-22T02:31:09.302Z,0
2018-09-22T02:32:19.198Z,0
2018-09-22T02:33:28.815Z,0
2018-09-22T02:34:38.159Z,0
2018-09-22T02:35:48.092Z,0
2018-09-22T02:36:58.056Z,0
2018-09-22T02:38:07.959Z,0
2018-09-22T02:39:18.155Z,0
2018-09-22T02:40:28.352Z,0
2018-09-22T02:41:38.580Z,0
2018-09-22T02:42:47.956Z,0
2018-09-22T02:43:57.588Z,0
2018-09-22T02:45:07.492Z,0
2018-09-22T02:46:16.835Z,0
2018-09-22T02:47:26.459Z,0
2018-09-22T02:48:36.380Z,0
2018-09-22T02:49:46.552Z,0
2018-09-22T02:50:56.727Z,0
2018-09-22T02:52:06.623Z,0
2018-09-22T02:53:16.236Z,0
2018-09-22T02:54:25.856Z,0
2018-09-22T02:55:35.482Z,0
2018-09-22T02:56:45.652Z,0
2018-09-22T02:57:55.815Z,0
2018-09-22T02:59:06.049Z,0
2018-09-22T03:00:15.942Z,0
2018-09-22T03:01:26.109Z,0
2018-09-22T03:02:35.738Z,0
2018-09-22T03:03:45.622Z,0
2018-09-22T03:04:55.564Z,0
2018-09-22T03:06:05.498Z,0
2018-09-22T03:07:15.389Z,0
2018-09-22T03:08:25.558Z,0
2018-09-22T03:09:35.174Z,0
2018-09-22T03:10:44.791Z,0
2018-09-22T03:11:54.420Z,0
2018-09-22T03:13:04.336Z,0
2018-09-22T03:14:13.405Z,0
2018-09-22T03:15:23.570Z,0
2018-09-22T03:16:33.558Z,0
2018-09-22T03:17:43.754Z,0
2018-09-22T03:18:53.107Z,0
2018-09-22T03:20:03.280Z,0
2018-09-22T03:21:13.220Z,0
2018-09-22T03:22:23.107Z,0
2018-09-22T03:23:32.721Z,0
2018-09-22T03:24:42.061Z,0
2018-09-22T03:25:51.955Z,0
2018-09-22T03:27:01.574Z,0
2018-09-22T03:28:11.497Z,0
2018-09-22T03:29:21.088Z,0
2018-09-22T03:30:31.479Z,0
2018-09-22T03:31:41.398Z,0
2018-09-22T03:32:51.324Z,0
2018-09-22T03:34:00.946Z,0
2018-09-22T03:35:11.118Z,0
2018-09-22T03:36:20.462Z,0
2018-09-22T03:37:30.084Z,0
2018-09-22T03:38:39.710Z,0
2018-09-22T03:39:49.039Z,0
2018-09-22T03:40:58.960Z,0
2018-09-22T03:42:08.619Z,0
2018-09-22T03:43:18.508Z,0
2018-09-22T03:44:28.400Z,0
2018-09-22T03:45:38.568Z,0
2018-09-22T03:46:48.465Z,0
2018-09-22T03:47:58.636Z,0
2018-09-22T03:49:08.523Z,0
2018-09-22T03:50:18.204Z,0
2018-09-22T03:51:28.376Z,0
2018-09-22T03:52:37.717Z,0
2018-09-22T03:53:47.608Z,0
2018-09-22T03:54:57.708Z,0
2018-09-22T03:56:07.620Z,0
2018-09-22T03:57:17.248Z,0
2018-09-22T03:58:27.150Z,0
2018-09-22T03:59:37.316Z,0
2018-09-22T04:00:47.283Z,0
2018-09-22T04:01:57.178Z,0
2018-09-22T04:03:07.352Z,0
2018-09-22T04:04:17.291Z,0
2018-09-22T04:05:26.922Z,0
2018-09-22T04:06:37.096Z,0
2018-09-22T04:07:47.268Z,0
2018-09-22T04:08:57.169Z,0
2018-09-22T04:10:07.062Z,0
2018-09-22T04:11:16.682Z,0
2018-09-22T04:12:26.581Z,0
2018-09-22T04:13:36.473Z,0
2018-09-22T04:14:46.147Z,0
2018-09-22T04:15:56.049Z,0
2018-09-22T04:17:05.968Z,0
2018-09-22T04:18:15.859Z,0
2018-09-22T04:19:25.750Z,0
2018-09-22T04:20:35.917Z,0
2018-09-22T04:21:46.125Z,0
2018-09-22T04:22:56.081Z,0
2018-09-22T04:24:06.282Z,0
2018-09-22T04:25:15.940Z,0
2018-09-22T04:26:25.841Z,0
2018-09-22T04:27:35.465Z,0
2018-09-22T04:28:45.083Z,0
2018-09-22T04:29:55.457Z,0
2018-09-22T04:31:05.554Z,0
2018-09-22T04:32:15.663Z,0
2018-09-22T04:33:25.896Z,0
2018-09-22T04:34:35.631Z,0
2018-09-22T04:35:45.521Z,0
2018-09-22T04:36:54.866Z,0
2018-09-22T04:38:04.753Z,0
2018-09-22T04:39:14.652Z,0
2018-09-22T04:40:24.541Z,0
2018-09-22T04:41:34.194Z,4
2018-09-22T04:42:44.594Z,4
2018-09-22T04:43:53.663Z,0
2018-09-22T04:45:03.554Z,4
2018-09-22T04:46:13.171Z,4
2018-09-22T04:47:23.348Z,4
2018-09-22T04:48:33.255Z,8
2018-09-22T04:49:42.867Z,8
2018-09-22T04:50:52.213Z,12
2018-09-22T04:52:02.142Z,16
2018-09-22T04:53:11.762Z,16
2018-09-22T04:54:21.659Z,20
2018-09-22T04:55:31.274Z,24
2018-09-22T04:56:40.617Z,32
2018-09-22T04:57:50.225Z,40
2018-09-22T04:58:59.291Z,44
2018-09-22T05:00:08.642Z,48
2018-09-22T05:01:18.537Z,60
2018-09-22T05:02:28.421Z,64
2018-09-22T05:03:37.490Z,76
2018-09-22T05:04:47.379Z,88
2018-09-22T05:05:57.278Z,104
2018-09-22T05:07:07.214Z,124
2018-09-22T05:08:17.377Z,144
2018-09-22T05:09:27.558Z,164
2018-09-22T05:10:37.942Z,188
2018-09-22T05:11:47.296Z,212
2018-09-22T05:12:57.207Z,236
2018-09-22T05:14:07.111Z,256
2018-09-22T05:15:17.325Z,276
2018-09-22T05:16:26.943Z,296
2018-09-22T05:17:36.842Z,320
2018-09-22T05:18:46.452Z,340
2018-09-22T05:19:56.082Z,368
2018-09-22T05:21:05.983Z,400
2018-09-22T05:22:16.086Z,416
2018-09-22T05:23:25.981Z,436
2018-09-22T05:24:35.662Z,480
2018-09-22T05:25:45.639Z,532
2018-09-22T05:26:55.816Z,548
2018-09-22T05:28:05.706Z,588
2018-09-22T05:29:15.322Z,660
2018-09-22T05:30:25.211Z,728
2018-09-22T05:31:35.390Z,780
2018-09-22T05:32:45.556Z,836
2018-09-22T05:33:55.172Z,796
2018-09-22T05:35:05.277Z,796
2018-09-22T05:36:15.174Z,804
2018-09-22T05:37:24.798Z,820
2018-09-22T05:38:34.961Z,848
2018-09-22T05:39:44.888Z,880
2018-09-22T05:40:54.986Z,920
2018-09-22T05:42:04.892Z,940
2018-09-22T05:43:14.519Z,980
2018-09-22T05:44:24.172Z,1004
2018-09-22T05:45:34.071Z,1036
2018-09-22T05:46:44.240Z,1064
2018-09-22T05:47:54.132Z,1088
2018-09-22T05:49:03.778Z,1100
2018-09-22T05:50:13.942Z,1132
2018-09-22T05:51:23.599Z,1172
2018-09-22T05:52:33.998Z,1240
2018-09-22T05:53:43.623Z,1256
2018-09-22T05:54:53.508Z,1272
2018-09-22T05:56:03.398Z,1304
2018-09-22T05:57:13.591Z,1332
2018-09-22T05:58:23.769Z,1352
2018-09-22T05:59:33.994Z,1372
2018-09-22T06:00:43.902Z,1388
2018-09-22T06:01:53.807Z,1408
2018-09-22T06:03:03.690Z,1424
2018-09-22T06:04:13.033Z,1448
2018-09-22T06:05:22.962Z,1468
2018-09-22T06:06:32.639Z,1488
2018-09-22T06:07:42.259Z,1504
2018-09-22T06:08:52.150Z,1520
2018-09-22T06:10:01.760Z,1536
2018-09-22T06:11:11.654Z,1560
2018-09-22T06:12:20.993Z,1580
2018-09-22T06:13:30.889Z,1604
2018-09-22T06:14:40.515Z,1624
2018-09-22T06:15:50.686Z,1624
2018-09-22T06:17:00.585Z,1636
2018-09-22T06:18:10.456Z,1644
2018-09-22T06:19:20.384Z,1652
2018-09-22T06:20:30.535Z,1664
2018-09-22T06:21:40.427Z,1680
2018-09-22T06:22:50.327Z,1692
2018-09-22T06:24:00.211Z,1708
2018-09-22T06:25:09.840Z,1728
2018-09-22T06:26:20.021Z,1744
2018-09-22T06:27:30.178Z,1760
2018-09-22T06:28:40.156Z,1772
2018-09-22T06:29:50.069Z,1788
2018-09-22T06:30:59.953Z,1800
2018-09-22T06:32:09.604Z,1816
2018-09-22T06:33:19.766Z,1828
2018-09-22T06:34:29.666Z,1836
2018-09-22T06:35:39.315Z,1844
2018-09-22T06:36:49.611Z,1864
2018-09-22T06:37:59.495Z,1868
2018-09-22T06:39:09.108Z,1884
2018-09-22T06:40:19.008Z,1896
2018-09-22T06:41:29.166Z,1912
2018-09-22T06:42:39.342Z,1924
2018-09-22T06:43:49.242Z,1948
2018-09-22T06:44:59.388Z,1936
2018-09-22T06:46:09.160Z,1936
2018-09-22T06:47:18.871Z,1928
2018-09-22T06:48:29.039Z,1932
2018-09-22T06:49:38.648Z,1944
2018-09-22T06:50:48.272Z,1956
2018-09-22T06:51:58.432Z,1964
2018-09-22T06:53:08.056Z,1972
2018-09-22T06:54:17.671Z,1980
2018-09-22T06:55:27.286Z,1996
2018-09-22T06:56:37.171Z,2004
2018-09-22T06:57:47.367Z,2020
2018-09-22T06:58:56.982Z,2040
2018-09-22T07:00:06.335Z,2064
2018-09-22T07:01:15.955Z,2092
2018-09-22T07:02:25.835Z,2132
2018-09-22T07:03:36.108Z,2124
2018-09-22T07:04:46.000Z,2132
2018-09-22T07:05:55.611Z,2136
2018-09-22T07:07:05.501Z,2116
2018-09-22T07:08:15.667Z,2100
2018-09-22T07:09:25.833Z,2100
2018-09-22T07:10:35.992Z,2124
2018-09-22T07:11:45.669Z,2140
2018-09-22T07:12:55.601Z,2168
2018-09-22T07:14:05.732Z,2184
2018-09-22T07:15:15.625Z,2188
2018-09-22T07:16:25.797Z,2192
2018-09-22T07:17:35.401Z,2200
2018-09-22T07:18:45.568Z,2220
2018-09-22T07:19:55.458Z,2236
2018-09-22T07:21:04.801Z,2260
2018-09-22T07:22:14.420Z,2232
2018-09-22T07:23:24.591Z,2236
2018-09-22T07:24:34.759Z,2212
2018-09-22T07:25:44.132Z,2232
2018-09-22T07:26:54.031Z,2244
2018-09-22T07:28:03.350Z,2248
2018-09-22T07:29:13.733Z,2232
2018-09-22T07:30:23.893Z,2232
2018-09-22T07:31:34.059Z,2252
2018-09-22T07:32:43.447Z,2280
2018-09-22T07:33:53.332Z,2280
2018-09-22T07:35:02.952Z,2260
2018-09-22T07:36:12.567Z,2260
2018-09-22T07:37:22.476Z,2280
2018-09-22T07:38:32.642Z,2292
2018-09-22T07:39:42.544Z,2308
2018-09-22T07:40:52.721Z,2364
2018-09-22T07:42:02.615Z,2404
2018-09-22T07:43:12.233Z,2452
2018-09-22T07:44:21.861Z,2528
2018-09-22T07:45:31.754Z,2628
2018-09-22T07:46:41.659Z,2680
2018-09-22T07:47:51.822Z,2816
2018-09-22T07:49:01.442Z,2824
2018-09-22T07:50:11.402Z,3064
2018-09-22T07:51:21.341Z,3048
2018-09-22T07:52:31.505Z,2912
2018-09-22T07:53:41.133Z,3020
2018-09-22T07:54:50.492Z,3460
2018-09-22T07:56:00.666Z,3556
2018-09-22T07:57:10.530Z,4056
2018-09-22T07:58:19.610Z,4284
2018-09-22T07:59:29.814Z,4484
2018-09-22T08:00:40.327Z,4872
2018-09-22T08:01:50.518Z,4956
2018-09-22T08:03:00.695Z,4800
2018-09-22T08:04:10.582Z,4804
2018-09-22T08:05:20.788Z,4932
2018-09-22T08:06:30.401Z,4936
2018-09-22T08:07:40.287Z,4664
2018-09-22T08:08:50.498Z,4688
2018-09-22T08:10:00.610Z,4392
2018-09-22T08:11:09.959Z,4252
2018-09-22T08:12:19.578Z,3756
2018-09-22T08:13:29.477Z,3848
2018-09-22T08:14:39.100Z,4300
2018-09-22T08:15:48.729Z,4752
2018-09-22T08:16:58.927Z,5100
2018-09-22T08:18:08.591Z,5160
2018-09-22T08:19:18.202Z,4760
2018-09-22T08:20:28.106Z,4976
2018-09-22T08:21:37.996Z,5584
2018-09-22T08:22:47.908Z,5464
2018-09-22T08:23:57.814Z,4448
2018-09-22T08:25:07.587Z,3736
2018-09-22T08:26:16.945Z,3356
2018-09-22T08:27:27.106Z,2968
2018-09-22T08:28:37.009Z,2976
2018-09-22T08:29:46.911Z,3324
2018-09-22T08:30:56.257Z,3480
2018-09-22T08:32:06.578Z,3848
2018-09-22T08:33:16.562Z,3552
2018-09-22T08:34:26.726Z,3280
2018-09-22T08:35:36.618Z,3264
2018-09-22T08:36:47.547Z,3404
2018-09-22T08:37:57.248Z,4236
2018-09-22T08:39:06.860Z,4368
2018-09-22T08:40:16.790Z,4144
2018-09-22T08:41:26.415Z,3820
2018-09-22T08:42:36.341Z,3080
2018-09-22T08:43:45.719Z,2856
2018-09-22T08:44:56.125Z,2668
2018-09-22T08:46:06.445Z,2956
2018-09-22T08:47:16.069Z,3100
2018-09-22T08:48:26.258Z,3072
2018-09-22T08:49:36.349Z,3180
2018-09-22T08:50:46.373Z,3264
2018-09-22T08:51:56.567Z,3272
2018-09-22T08:53:06.458Z,3272
2018-09-22T08:54:15.803Z,3524
2018-09-22T08:55:25.713Z,4152
2018-09-22T08:56:35.596Z,5168
2018-09-22T08:57:45.258Z,6192
2018-09-22T08:58:55.211Z,5752
2018-09-22T09:00:05.125Z,5796
2018-09-22T09:01:15.290Z,5740
2018-09-22T09:02:25.450Z,5848
2018-09-22T09:03:35.618Z,5624
2018-09-22T09:04:45.514Z,5192
2018-09-22T09:05:55.395Z,5388
2018-09-22T09:07:05.694Z,7056
2018-09-22T09:08:15.578Z,6764
2018-09-22T09:09:25.483Z,6084
2018-09-22T09:10:35.098Z,6752
2018-09-22T09:11:45.261Z,8028
2018-09-22T09:12:54.609Z,8272
2018-09-22T09:14:04.584Z,8176
2018-09-22T09:15:14.451Z,8816
2018-09-22T09:16:24.352Z,7352
2018-09-22T09:17:34.024Z,7108
2018-09-22T09:18:44.201Z,7464
2018-09-22T09:19:54.094Z,7940
2018-09-22T09:21:03.443Z,8060
2018-09-22T09:22:13.615Z,7252
2018-09-22T09:23:23.809Z,5876
2018-09-22T09:24:33.708Z,4828
2018-09-22T09:25:43.599Z,4472
2018-09-22T09:26:53.492Z,4240
2018-09-22T09:28:03.104Z,4244
2018-09-22T09:29:12.729Z,5600
2018-09-22T09:30:22.680Z,6968
2018-09-22T09:31:32.580Z,6704
2018-09-22T09:32:41.926Z,9208
2018-09-22T09:33:51.824Z,8104
2018-09-22T09:35:01.484Z,8780
2018-09-22T09:36:11.190Z,10140
2018-09-22T09:37:21.094Z,10392
2018-09-22T09:38:30.718Z,6920
2018-09-22T09:39:40.718Z,7624
2018-09-22T09:40:50.336Z,10804
2018-09-22T09:42:00.234Z,7688
2018-09-22T09:43:10.099Z,6796
2018-09-22T09:44:20.041Z,7668
2018-09-22T09:45:29.657Z,8952
2018-09-22T09:46:39.285Z,10220
2018-09-22T09:47:48.919Z,9844
2018-09-22T09:48:58.543Z,10700
2018-09-22T09:50:08.448Z,9620
2018-09-22T09:51:18.625Z,10424
2018-09-22T09:52:28.811Z,9320
2018-09-22T09:53:38.201Z,8196
2018-09-22T09:54:48.591Z,9280
2018-09-22T09:55:58.624Z,7204
2018-09-22T09:57:08.515Z,9228
2018-09-22T09:58:18.415Z,10500
2018-09-22T09:59:28.551Z,8612
2018-09-22T10:00:38.759Z,8352
2018-09-22T10:01:48.704Z,9716
2018-09-22T10:02:58.314Z,10376
2018-09-22T10:04:07.936Z,11212
2018-09-22T10:05:17.555Z,8040
2018-09-22T10:06:27.209Z,7200
2018-09-22T10:07:37.377Z,8472
2018-09-22T10:08:47.584Z,10444
2018-09-22T10:09:57.482Z,9668
2018-09-22T10:11:07.187Z,9484
2018-09-22T10:12:17.354Z,9196
2018-09-22T10:13:27.246Z,11420
2018-09-22T10:14:37.135Z,10300
2018-09-22T10:15:46.490Z,8836
2018-09-22T10:16:56.388Z,8788
2018-09-22T10:18:05.737Z,7464
2018-09-22T10:19:15.656Z,7492
2018-09-22T10:20:26.032Z,10172
2018-09-22T10:21:35.930Z,8448
2018-09-22T10:22:45.820Z,8644
2018-09-22T10:23:55.720Z,9536
2018-09-22T10:25:05.340Z,11388
2018-09-22T10:26:14.962Z,9144
2018-09-22T10:27:24.852Z,12112
2018-09-22T10:28:34.845Z,10632
2018-09-22T10:29:44.525Z,12704
2018-09-22T10:30:54.344Z,10668
2018-09-22T10:32:04.235Z,10908
2018-09-22T10:33:14.131Z,10416
2018-09-22T10:34:23.560Z,11480
2018-09-22T10:35:33.724Z,9640
2018-09-22T10:36:42.797Z,6420
2018-09-22T10:37:52.414Z,8836
2018-09-22T10:39:02.026Z,9944
2018-09-22T10:40:12.188Z,9092
2018-09-22T10:41:22.082Z,8420
2018-09-22T10:42:32.248Z,10488
2018-09-22T10:43:42.182Z,10944
2018-09-22T10:44:51.804Z,9020
2018-09-22T10:46:01.805Z,8868
2018-09-22T10:47:11.422Z,9944
2018-09-22T10:48:21.640Z,10508
2018-09-22T10:49:30.974Z,10144
2018-09-22T10:50:40.878Z,11256
2018-09-22T10:51:50.827Z,11512
2018-09-22T10:53:00.865Z,10280
2018-09-22T10:54:11.117Z,10132
2018-09-22T10:55:20.763Z,10136
2018-09-22T10:56:30.929Z,10052
2018-09-22T10:57:40.899Z,9776
2018-09-22T10:58:50.510Z,7524
2018-09-22T11:00:00.412Z,7280
2018-09-22T11:01:10.032Z,9820
2018-09-22T11:02:20.195Z,9016
2018-09-22T11:03:30.177Z,8700
2018-09-22T11:04:39.440Z,10112
2018-09-22T11:05:49.845Z,10440
2018-09-22T11:07:00.013Z,9400
2018-09-22T11:08:09.363Z,10320
2018-09-22T11:09:19.264Z,10416
2018-09-22T11:10:28.887Z,11744
2018-09-22T11:11:38.787Z,9560
2018-09-22T11:12:48.695Z,11012
2018-09-22T11:13:58.901Z,10976
2018-09-22T11:15:09.094Z,8804
2018-09-22T11:16:18.720Z,10104
2018-09-22T11:17:28.660Z,11644
2018-09-22T11:18:38.560Z,10660
2018-09-22T11:19:48.172Z,8468
2018-09-22T11:20:58.068Z,12024
2018-09-22T11:22:07.694Z,12448
2018-09-22T11:23:17.589Z,12252
2018-09-22T11:24:27.487Z,9156
2018-09-22T11:25:37.112Z,9420
2018-09-22T11:26:46.810Z,11164
2018-09-22T11:27:56.772Z,11384
2018-09-22T11:29:06.664Z,13332
2018-09-22T11:30:16.455Z,11980
2018-09-22T11:31:26.662Z,11132
2018-09-22T11:32:37.066Z,13360
2018-09-22T11:33:46.441Z,13540
2018-09-22T11:34:56.059Z,12396
2018-09-22T11:36:06.199Z,11936
2018-09-22T11:37:16.143Z,12272
2018-09-22T11:38:26.777Z,12776
2018-09-22T11:39:36.437Z,13684
2018-09-22T11:40:46.092Z,14276
2018-09-22T11:41:55.990Z,14752
2018-09-22T11:43:05.893Z,15000
2018-09-22T11:44:15.558Z,13672
2018-09-22T11:45:25.769Z,11064
2018-09-22T11:46:35.090Z,9932
2018-09-22T11:47:45.281Z,11456
2018-09-22T11:48:54.897Z,12556
2018-09-22T11:50:04.281Z,12356
2018-09-22T11:51:14.419Z,13944
2018-09-22T11:52:24.051Z,10708
2018-09-22T11:53:33.675Z,9192
2018-09-22T11:54:43.298Z,9144
2018-09-22T11:55:53.259Z,11736
2018-09-22T11:57:03.427Z,11844
2018-09-22T11:58:12.771Z,12364
2018-09-22T11:59:22.668Z,12452
2018-09-22T12:00:32.293Z,12684
2018-09-22T12:01:41.645Z,13500
2018-09-22T12:02:51.583Z,13928
2018-09-22T12:04:01.481Z,11100
2018-09-22T12:05:11.656Z,11640
2018-09-22T12:06:22.206Z,10624
2018-09-22T12:07:32.261Z,11880
2018-09-22T12:08:41.603Z,12812
2018-09-22T12:09:51.501Z,13068
2018-09-22T12:11:01.140Z,12492
2018-09-22T12:12:11.037Z,11704
2018-09-22T12:13:20.967Z,10840
2018-09-22T12:14:30.864Z,10340
2018-09-22T12:15:40.531Z,10932
2018-09-22T12:16:50.433Z,11392
2018-09-22T12:18:00.615Z,11304
2018-09-22T12:19:10.272Z,11016
2018-09-22T12:20:20.169Z,10904
2018-09-22T12:21:30.112Z,10652
2018-09-22T12:22:40.310Z,10440
2018-09-22T12:23:49.933Z,11180
2018-09-22T12:24:59.828Z,10836
2018-09-22T12:26:09.455Z,10724
2018-09-22T12:27:19.073Z,10820
2018-09-22T12:28:28.996Z,10240
2018-09-22T12:29:38.620Z,10108
2018-09-22T12:30:49.021Z,9556
2018-09-22T12:31:58.899Z,10948
2018-09-22T12:33:09.034Z,11284
2018-09-22T12:34:18.972Z,11376
2018-09-22T12:35:28.863Z,11292
2018-09-22T12:36:38.758Z,11764
2018-09-22T12:37:48.700Z,12292
2018-09-22T12:38:58.328Z,10744
2018-09-22T12:40:07.953Z,9868
2018-09-22T12:41:17.880Z,9224
2018-09-22T12:42:27.744Z,9400
2018-09-22T12:43:37.364Z,9220
2018-09-22T12:44:46.989Z,8284
2018-09-22T12:45:57.215Z,7140
2018-09-22T12:47:06.996Z,8912
2018-09-22T12:48:16.896Z,10668
2018-09-22T12:49:26.523Z,11456
2018-09-22T12:50:36.463Z,12080
2018-09-22T12:51:46.356Z,12208
2018-09-22T12:52:55.982Z,11544
2018-09-22T12:54:05.574Z,11748
2018-09-22T12:55:15.747Z,10756
2018-09-22T12:56:25.093Z,10344
2018-09-22T12:57:34.439Z,10000
2018-09-22T12:58:44.331Z,9860
2018-09-22T12:59:54.220Z,10096
2018-09-22T13:01:03.847Z,9212
2018-09-22T13:02:13.740Z,9592
2018-09-22T13:03:23.356Z,9364
2018-09-22T13:04:32.979Z,8184
2018-09-22T13:05:42.923Z,8552
2018-09-22T13:06:53.103Z,9016
2018-09-22T13:08:03.041Z,9364
2018-09-22T13:09:12.960Z,9492
2018-09-22T13:10:22.858Z,9000
2018-09-22T13:11:32.758Z,9184
2018-09-22T13:12:42.098Z,9152
2018-09-22T13:13:51.718Z,8292
2018-09-22T13:15:01.336Z,7556
2018-09-22T13:16:10.962Z,8112
2018-09-22T13:17:20.625Z,8072
2018-09-22T13:18:30.822Z,7512
2018-09-22T13:19:40.746Z,6972
2018-09-22T13:20:50.103Z,7404
2018-09-22T13:22:00.004Z,7192
2018-09-22T13:23:09.906Z,7060
2018-09-22T13:24:19.808Z,6832
2018-09-22T13:25:29.971Z,7300
2018-09-22T13:26:40.166Z,7188
2018-09-22T13:27:50.411Z,6828
2018-09-22T13:29:00.314Z,6828
2018-09-22T13:30:10.475Z,7232
2018-09-22T13:31:19.828Z,7224
2018-09-22T13:32:29.753Z,7156
2018-09-22T13:33:39.850Z,7136
2018-09-22T13:34:49.745Z,7352
2018-09-22T13:35:59.648Z,7300
2018-09-22T13:37:09.760Z,6340
2018-09-22T13:38:20.086Z,5912
2018-09-22T13:39:30.005Z,5920
2018-09-22T13:40:39.348Z,5448
2018-09-22T13:41:48.698Z,5052
2018-09-22T13:42:58.664Z,6192
2018-09-22T13:44:08.564Z,6912
2018-09-22T13:45:18.736Z,7296
2018-09-22T13:46:28.089Z,7908
2018-09-22T13:47:37.743Z,8464
2018-09-22T13:48:47.359Z,9472
2018-09-22T13:49:57.521Z,10212
2018-09-22T13:51:07.431Z,9440
2018-09-22T13:52:17.324Z,8572
2018-09-22T13:53:26.938Z,7396
2018-09-22T13:54:36.595Z,6752
2018-09-22T13:55:46.501Z,7148
2018-09-22T13:56:56.438Z,8080
2018-09-22T13:58:06.327Z,9136
2018-09-22T13:59:15.947Z,10600
2018-09-22T14:00:25.570Z,11324
2018-09-22T14:01:35.189Z,11696
2018-09-22T14:02:45.085Z,11336
2018-09-22T14:03:55.513Z,12156
2018-09-22T14:05:05.139Z,14256
2018-09-22T14:06:15.320Z,15240
2018-09-22T14:07:24.662Z,16352
2018-09-22T14:08:34.875Z,12604
2018-09-22T14:09:44.769Z,11168
2018-09-22T14:10:54.951Z,11008
2018-09-22T14:12:04.610Z,11192
2018-09-22T14:13:13.957Z,11576
2018-09-22T14:14:23.361Z,12576
2018-09-22T14:15:33.250Z,10660
2018-09-22T14:16:42.868Z,10124
2018-09-22T14:17:52.774Z,9976
2018-09-22T14:19:02.407Z,9032
2018-09-22T14:20:12.369Z,8900
2018-09-22T14:21:22.489Z,9004
2018-09-22T14:22:32.806Z,9948
2018-09-22T14:23:42.699Z,11448
2018-09-22T14:24:52.591Z,10720
2018-09-22T14:26:02.764Z,9972
2018-09-22T14:27:13.335Z,8944
2018-09-22T14:28:23.246Z,8676
2018-09-22T14:29:32.660Z,8736
2018-09-22T14:30:42.254Z,8036
2018-09-22T14:31:51.871Z,7600
2018-09-22T14:33:01.492Z,8368
2018-09-22T14:34:11.385Z,7968
2018-09-22T14:35:21.594Z,8372
2018-09-22T14:36:31.209Z,9196
2018-09-22T14:37:41.102Z,9312
2018-09-22T14:38:50.747Z,8184
2018-09-22T14:40:00.631Z,7680
2018-09-22T14:41:10.526Z,8128
2018-09-22T14:42:20.419Z,7592
2018-09-22T14:43:30.580Z,7092
2018-09-22T14:44:39.924Z,6196
2018-09-22T14:45:49.874Z,5964
2018-09-22T14:46:59.492Z,5932
2018-09-22T14:48:09.665Z,5600
2018-09-22T14:49:19.612Z,5236
2018-09-22T14:50:29.527Z,4872
2018-09-22T14:51:39.153Z,5264
2018-09-22T14:52:49.385Z,5816
2018-09-22T14:53:59.321Z,5820
2018-09-22T14:55:08.666Z,5036
2018-09-22T14:56:18.566Z,4116
2018-09-22T14:57:28.712Z,3728
2018-09-22T14:58:38.613Z,3516
2018-09-22T14:59:48.236Z,3700
2018-09-22T15:00:58.134Z,4620
2018-09-22T15:02:08.375Z,4244
2018-09-22T15:03:17.987Z,4344
2018-09-22T15:04:27.606Z,4032
2018-09-22T15:05:37.775Z,3436
2018-09-22T15:06:47.727Z,3560
2018-09-22T15:07:57.346Z,3688
2018-09-22T15:09:07.234Z,3744
2018-09-22T15:10:17.131Z,3196
2018-09-22T15:11:27.300Z,2892
2018-09-22T15:12:37.250Z,2716
2018-09-22T15:13:47.350Z,2516
2018-09-22T15:14:57.242Z,2132
2018-09-22T15:16:07.139Z,1920
2018-09-22T15:17:16.516Z,1804
2018-09-22T15:18:26.201Z,1660
2018-09-22T15:19:35.821Z,1528
2018-09-22T15:20:45.721Z,1444
2018-09-22T15:21:55.340Z,1436
2018-09-22T15:23:04.951Z,1424
2018-09-22T15:24:15.130Z,1428
2018-09-22T15:25:24.474Z,1408
2018-09-22T15:26:34.633Z,1316
2018-09-22T15:27:44.261Z,1228
2018-09-22T15:28:53.884Z,1272
2018-09-22T15:30:03.811Z,1284
2018-09-22T15:31:13.464Z,1268
2018-09-22T15:32:23.087Z,1396
2018-09-22T15:33:33.262Z,1528
2018-09-22T15:34:43.156Z,1888
2018-09-22T15:35:53.370Z,2412
2018-09-22T15:37:03.485Z,2784
2018-09-22T15:38:13.794Z,2836
2018-09-22T15:39:23.721Z,2724
2018-09-22T15:40:33.607Z,2692
2018-09-22T15:41:43.509Z,2572
2018-09-22T15:42:53.665Z,2364
2018-09-22T15:44:03.316Z,2148
2018-09-22T15:45:13.215Z,2124
2018-09-22T15:46:23.133Z,1856
2018-09-22T15:47:33.343Z,1808
2018-09-22T15:48:44.105Z,1784
2018-09-22T15:49:53.726Z,1728
2018-09-22T15:51:03.864Z,1712
2018-09-22T15:52:14.351Z,1732
2018-09-22T15:53:24.238Z,1552
2018-09-22T15:54:33.884Z,1416
2018-09-22T15:55:43.779Z,1432